Flight Information

DEPARTURE
SANTA MONICA, CA
Elevation:
169
Runways:
H1 - 40x40 - ASPH-G
3/21 - 3500x150 - ASPH-G
Active PE Departure:
21
Current PE ATIS:
N
Altimeter:
29.99
Remarks:
ATIS:
119.15 310-450-4620
Ground:
121.9
Tower:
120.1
DESTINATION
,
Elevation:
TPA:
1000 (est.)


6795.3 NM73° True-14° Var59° HDG

Flight Plan:
(click to file on line)

1. Type
2. Aircraft Identification
3. Aircraft Type / Special Equipment
4. True Airspeed
kts
5. Departure Airport
(ICAO code)
6. Arriving Airport
(ICAO code)
7. Cruising Altitude
ft
8. Alternate Airport
(ICAO code)
9. Route of Flight
10. Remarks


00:00:00 Departure ATIS: Destination ATIS:

Clearance Limit:
Route:
Altitude: Expect in minutes
Frequency:
Transponder: (7500 Hijack / 7600 Lost Comms / 7700 Emergency)


KSMO 101451Z 00000KT 4SM BR OVC007 18/16 A2999 RMK AO2 SLP154 T01780161 53014
Time: 2020-07-10T14:51:00Z
1594394308
Winds: calm
Visibility: 4.0 sm
Clouds (AGL): OVC 700
Temperature: 17.8 C
Dew Point: 16.1 C
Pressure: 29.991142 in Hgbr


Notes:

Data extracted from FAA Digital Chart Supplement. Effective: 0901Z Thursday, May 21, 2020 to 0901Z Thursday, Jul 16, 2020
Current ATIS data is provided courtisy of PilotEdge.